Wetterdaten: Woche 29.01.18 - 04.02.18 (KW5)
Datum Zeit Temp. A. Feuchte A. Luftdruck Regen Wind Richtung Taupunkt Windchill Windben
29.01.2018 00:00 11,2 C 65 % 1028,9 hPa 0,0 l/m 11,1 km/h N 4,9 C 8,4 C 34,6 km/h
29.01.2018 01:00 11,4 C 65 % 1028,9 hPa 0,0 l/m 10,1 km/h N 5,1 C 9,2 C 32,2 km/h
29.01.2018 02:00 11,5 C 65 % 1028,9 hPa 0,0 l/m 7,9 km/h N 5,2 C 10,4 C 27,4 km/h
29.01.2018 03:00 11,6 C 65 % 1028,5 hPa 0,0 l/m 11,0 km/h N 5,1 C 8,8 C 35,0 km/h
29.01.2018 04:00 11,3 C 65 % 1028,2 hPa 0,0 l/m 7,4 km/h N 5,0 C 10,6 C 24,9 km/h
29.01.2018 05:00 11,0 C 67 % 1028,0 hPa 0,0 l/m 6,9 km/h N 5,0 C 10,4 C 25,8 km/h
29.01.2018 06:00 10,7 C 68 % 1028,0 hPa 0,0 l/m 5,2 km/h N 5,0 C 10,7 C 20,5 km/h
29.01.2018 07:00 11,0 C 68 % 1027,8 hPa 0,0 l/m 5,3 km/h N 5,2 C 11,0 C 22,5 km/h
29.01.2018 08:00 11,4 C 66 % 1027,8 hPa 0,0 l/m 8,7 km/h N 5,2 C 10,0 C 26,5 km/h
29.01.2018 09:00 11,8 C 64 % 1027,7 hPa 0,0 l/m 11,9 km/h N 5,3 C 8,7 C 31,0 km/h
29.01.2018 10:00 12,3 C 63 % 1027,2 hPa 0,0 l/m 13,2 km/h N 5,5 C 8,8 C 35,0 km/h
29.01.2018 11:00 13,7 C 60 % 1026,1 hPa 0,0 l/m 13,2 km/h N 6,0 C 10,3 C 36,6 km/h
29.01.2018 12:00 15,3 C 55 % 1025,1 hPa 0,0 l/m 15,0 km/h N 6,3 C 11,6 C 44,6 km/h
29.01.2018 13:00 16,0 C 51 % 1024,0 hPa 0,0 l/m 14,5 km/h N 5,9 C 12,6 C 49,1 km/h
29.01.2018 14:00 16,7 C 49 % 1023,1 hPa 0,0 l/m 11,7 km/h N 5,9 C 14,3 C 35,9 km/h
29.01.2018 15:00 16,8 C 48 % 1022,4 hPa 0,0 l/m 10,9 km/h N 5,6 C 14,7 C 34,6 km/h
29.01.2018 16:00 16,1 C 48 % 1021,7 hPa 0,0 l/m 12,0 km/h N 5,0 C 13,5 C 35,8 km/h
29.01.2018 17:00 14,8 C 51 % 1021,4 hPa 0,0 l/m 9,0 km/h N 4,7 C 13,4 C 28,6 km/h
29.01.2018 18:00 14,1 C 53 % 1021,1 hPa 0,0 l/m 8,4 km/h N 4,6 C 13,0 C 21,7 km/h
29.01.2018 19:00 13,6 C 53 % 1020,8 hPa 0,0 l/m 3,2 km/h N 4,3 C 13,6 C 13,7 km/h
29.01.2018 20:00 14,7 C 51 % 1020,5 hPa 0,0 l/m 9,0 km/h N 4,7 C 13,3 C 29,8 km/h
29.01.2018 21:00 14,5 C 53 % 1020,0 hPa 0,0 l/m 13,3 km/h N 5,1 C 11,2 C 31,7 km/h
29.01.2018 22:00 12,8 C 59 % 1020,0 hPa 0,0 l/m 15,8 km/h N 5,0 C 8,4 C 37,0 km/h
29.01.2018 23:00 11,3 C 67 % 1020,5 hPa 0,0 l/m 21,2 km/h N 5,4 C 4,7 C 47,9 km/h
30.01.2018 00:00 10,6 C 68 % 1021,9 hPa 0,0 l/m 18,1 km/h N 4,9 C 4,7 C 47,1 km/h
30.01.2018 01:00 9,9 C 69 % 1022,6 hPa 0,0 l/m 17,0 km/h N 4,5 C 4,3 C 39,4 km/h
30.01.2018 02:00 10,3 C 64 % 1022,0 hPa 0,0 l/m 12,4 km/h N 3,8 C 6,7 C 36,6 km/h
30.01.2018 03:00 10,7 C 64 % 1021,6 hPa 0,0 l/m 10,8 km/h N 4,1 C 8,0 C 32,2 km/h
30.01.2018 04:00 10,1 C 67 % 1021,3 hPa 0,0 l/m 16,2 km/h N 4,3 C 4,8 C 45,1 km/h
30.01.2018 05:00 9,7 C 69 % 1021,8 hPa 0,0 l/m 15,3 km/h N 4,3 C 4,7 C 40,2 km/h
30.01.2018 06:00 9,7 C 69 % 1022,3 hPa 0,0 l/m 16,8 km/h N 4,2 C 4,0 C 46,3 km/h
30.01.2018 07:00 9,5 C 70 % 1024,1 hPa 0,3 l/m 12,6 km/h N 4,3 C 5,7 C 33,8 km/h
30.01.2018 08:00 7,3 C 80 % 1026,0 hPa 0,8 l/m 3,0 km/h N 4,1 C 7,2 C 13,3 km/h
30.01.2018 09:00 6,9 C 80 % 1026,6 hPa 0,0 l/m 1,8 km/h N 3,7 C 6,9 C 10,9 km/h
30.01.2018 10:00 7,4 C 75 % 1027,1 hPa 0,0 l/m 4,7 km/h N 3,2 C 7,1 C 14,5 km/h
30.01.2018 11:00 7,6 C 69 % 1027,7 hPa 0,0 l/m 4,4 km/h N 2,3 C 7,6 C 13,7 km/h
30.01.2018 12:00 7,4 C 66 % 1027,9 hPa 0,0 l/m 3,2 km/h N 1,5 C 7,4 C 12,5 km/h
30.01.2018 13:00 7,8 C 67 % 1027,4 hPa 0,0 l/m 0,7 km/h N 2,0 C 7,8 C 5,2 km/h
30.01.2018 14:00 8,5 C 70 % 1026,8 hPa 0,0 l/m 4,2 km/h N 3,4 C 8,5 C 15,3 km/h
30.01.2018 15:00 8,7 C 68 % 1026,6 hPa 0,0 l/m 3,0 km/h N 3,2 C 8,7 C 12,5 km/h
30.01.2018 16:00 8,4 C 67 % 1026,7 hPa 0,0 l/m 2,3 km/h N 2,6 C 8,4 C 8,4 km/h
30.01.2018 17:00 7,5 C 68 % 1026,9 hPa 0,0 l/m 2,3 km/h N 1,9 C 7,5 C 12,0 km/h
30.01.2018 18:00 7,1 C 70 % 1027,0 hPa 0,0 l/m 2,7 km/h N 2,0 C 7,1 C 10,1 km/h
30.01.2018 19:00 6,6 C 72 % 1027,1 hPa 0,0 l/m 1,6 km/h N 1,9 C 6,6 C 10,9 km/h
30.01.2018 20:00 6,3 C 74 % 1027,4 hPa 0,0 l/m 1,3 km/h N 2,0 C 6,3 C 10,0 km/h
30.01.2018 21:00 5,8 C 75 % 1027,3 hPa 0,0 l/m 0,5 km/h N 1,6 C 5,8 C 5,6 km/h
30.01.2018 22:00 4,8 C 77 % 1026,9 hPa 0,0 l/m 0,2 km/h N 1,0 C 4,8 C 2,8 km/h
30.01.2018 23:00 2,7 C 79 % 1026,4 hPa 0,0 l/m 0,2 km/h N -0,5 C 2,7 C 2,0 km/h
31.01.2018 00:00 1,6 C 81 % 1025,8 hPa 0,0 l/m 0,0 km/h N -1,2 C 1,6 C 0,4 km/h
31.01.2018 01:00 0,7 C 82 % 1025,5 hPa 0,0 l/m 0,1 km/h N -2,0 C 0,7 C 1,6 km/h
31.01.2018 02:00 0,1 C 83 % 1025,3 hPa 0,0 l/m 0,3 km/h N -2,4 C 0,1 C 2,0 km/h
31.01.2018 03:00 0,1 C 84 % 1024,7 hPa 0,0 l/m 0,0 km/h N -2,3 C 0,1 C 0,0 km/h
31.01.2018 04:00 0,0 C 84 % 1024,0 hPa 0,0 l/m 0,0 km/h N -2,4 C 0,0 C 0,4 km/h
31.01.2018 05:00 0,4 C 83 % 1023,7 hPa 0,0 l/m 0,0 km/h N -2,1 C 0,4 C 0,0 km/h
31.01.2018 06:00 1,3 C 84 % 1023,3 hPa 0,0 l/m 0,0 km/h N -1,2 C 1,3 C 0,4 km/h
31.01.2018 07:00 1,6 C 84 % 1023,2 hPa 0,0 l/m 0,0 km/h N -0,8 C 1,6 C 0,0 km/h
31.01.2018 08:00 2,0 C 84 % 1023,2 hPa 0,0 l/m 0,0 km/h N -0,4 C 2,0 C 0,0 km/h
31.01.2018 09:00 2,7 C 84 % 1022,4 hPa 0,0 l/m 0,0 km/h N 0,3 C 2,7 C 0,8 km/h
31.01.2018 10:00 3,4 C 84 % 1021,7 hPa 0,0 l/m 0,0 km/h N 1,0 C 3,4 C 0,4 km/h
31.01.2018 11:00 5,2 C 84 % 1020,7 hPa 0,0 l/m 0,0 km/h N 2,7 C 5,2 C 1,6 km/h
31.01.2018 12:00 6,9 C 81 % 1019,0 hPa 0,0 l/m 1,0 km/h N 3,9 C 6,9 C 7,6 km/h
31.01.2018 13:00 8,9 C 73 % 1017,3 hPa 0,0 l/m 0,9 km/h N 4,3 C 8,9 C 7,2 km/h
31.01.2018 14:00 10,1 C 66 % 1015,8 hPa 0,0 l/m 1,2 km/h N 4,1 C 10,1 C 6,8 km/h
31.01.2018 15:00 9,9 C 65 % 1015,0 hPa 0,0 l/m 0,5 km/h N 3,7 C 9,9 C 4,8 km/h
31.01.2018 16:00 7,7 C 71 % 1014,3 hPa 0,0 l/m 0,4 km/h N 2,7 C 7,7 C 3,2 km/h
31.01.2018 17:00 5,7 C 76 % 1013,2 hPa 0,0 l/m 0,0 km/h N 1,7 C 5,7 C 2,0 km/h
31.01.2018 18:00 4,2 C 79 % 1012,7 hPa 0,0 l/m 0,0 km/h N 0,9 C 4,2 C 0,4 km/h
31.01.2018 19:00 2,6 C 81 % 1011,7 hPa 0,0 l/m 0,0 km/h N -0,5 C 2,6 C 0,0 km/h
31.01.2018 20:00 1,3 C 81 % 1010,7 hPa 0,0 l/m 0,0 km/h N -1,5 C 1,3 C 0,0 km/h
31.01.2018 21:00 0,3 C 83 % 1009,5 hPa 0,0 l/m 0,0 km/h N -2,3 C 0,3 C 0,0 km/h
31.01.2018 22:00 -0,7 C 83 % 1008,7 hPa 0,0 l/m 0,0 km/h N -3,2 C -0,7 C 0,0 km/h
31.01.2018 23:00 -1,4 C 84 % 1007,8 hPa 0,0 l/m 0,0 km/h N -3,8 C -1,4 C 0,0 km/h
01.02.2018 00:00 -1,7 C 84 % 1007,1 hPa 0,0 l/m 0,0 km/h N -4,0 C -1,7 C 0,0 km/h
01.02.2018 01:00 -1,7 C 84 % 1006,3 hPa 0,0 l/m 0,0 km/h N -4,1 C -1,7 C 0,0 km/h
01.02.2018 02:00 -0,7 C 84 % 1005,7 hPa 0,0 l/m 0,0 km/h N -3,1 C -0,7 C 0,0 km/h
01.02.2018 03:00 0,1 C 84 % 1004,9 hPa 0,0 l/m 0,0 km/h N -2,2 C 0,1 C 0,0 km/h
01.02.2018 04:00 0,3 C 84 % 1004,7 hPa 0,0 l/m 0,0 km/h N -2,1 C 0,3 C 0,0 km/h
01.02.2018 05:00 0,6 C 84 % 1004,6 hPa 0,0 l/m 0,0 km/h N -1,8 C 0,6 C 1,2 km/h
01.02.2018 06:00 0,9 C 84 % 1004,5 hPa 0,0 l/m 0,0 km/h N -1,5 C 0,9 C 0,8 km/h
01.02.2018 07:00 0,9 C 84 % 1004,8 hPa 0,0 l/m 0,0 km/h N -1,5 C 0,9 C 0,8 km/h
01.02.2018 08:00 0,9 C 84 % 1004,8 hPa 0,0 l/m 0,0 km/h N -1,5 C 0,9 C 0,0 km/h
01.02.2018 09:00 1,3 C 84 % 1004,8 hPa 0,0 l/m 0,0 km/h N -1,1 C 1,3 C 0,0 km/h
01.02.2018 10:00 1,8 C 84 % 1004,9 hPa 0,0 l/m 0,0 km/h N -0,6 C 1,8 C 0,0 km/h
01.02.2018 11:00 2,1 C 84 % 1004,5 hPa 0,0 l/m 0,1 km/h N -0,3 C 2,1 C 0,8 km/h
01.02.2018 12:00 3,8 C 84 % 1003,9 hPa 0,0 l/m 0,0 km/h N 1,4 C 3,8 C 2,0 km/h
01.02.2018 13:00 4,8 C 84 % 1003,1 hPa 0,0 l/m 0,0 km/h N 2,3 C 4,8 C 1,2 km/h
01.02.2018 14:00 5,3 C 84 % 1002,4 hPa 0,0 l/m 0,0 km/h N 2,8 C 5,3 C 1,6 km/h
01.02.2018 15:00 6,2 C 82 % 1002,1 hPa 0,0 l/m 0,1 km/h N 3,4 C 6,2 C 1,6 km/h
01.02.2018 16:00 6,4 C 81 % 1002,0 hPa 0,0 l/m 0,0 km/h N 3,2 C 6,4 C 0,0 km/h
01.02.2018 17:00 6,1 C 82 % 1002,9 hPa 0,3 l/m 4,9 km/h N 3,2 C 5,5 C 16,1 km/h
01.02.2018 18:00 5,4 C 82 % 1003,7 hPa 0,3 l/m 7,6 km/h N 2,6 C 4,4 C 26,1 km/h
01.02.2018 19:00 4,6 C 82 % 1005,1 hPa 0,3 l/m 8,4 km/h N 1,7 C 2,7 C 22,6 km/h
01.02.2018 20:00 4,7 C 81 % 1005,7 hPa 0,0 l/m 4,5 km/h N 1,7 C 4,7 C 17,3 km/h
01.02.2018 21:00 4,9 C 78 % 1005,9 hPa 0,0 l/m 3,8 km/h N 1,4 C 4,9 C 14,5 km/h
01.02.2018 22:00 4,9 C 75 % 1006,1 hPa 0,0 l/m 5,3 km/h N 0,8 C 4,9 C 18,5 km/h
01.02.2018 23:00 4,8 C 74 % 1006,3 hPa 0,0 l/m 5,1 km/h N 0,5 C 4,8 C 15,3 km/h
02.02.2018 00:00 4,5 C 75 % 1006,8 hPa 0,0 l/m 2,1 km/h N 0,5 C 4,5 C 8,9 km/h
02.02.2018 01:00 4,3 C 76 % 1007,0 hPa 0,0 l/m 1,1 km/h N 0,4 C 4,3 C 5,6 km/h
02.02.2018 02:00 4,1 C 77 % 1006,9 hPa 0,0 l/m 1,7 km/h N 0,5 C 4,1 C 6,4 km/h
02.02.2018 03:00 4,1 C 77 % 1006,8 hPa 0,0 l/m 3,7 km/h N 0,4 C 4,1 C 10,9 km/h
02.02.2018 04:00 3,9 C 77 % 1007,1 hPa 0,0 l/m 1,5 km/h N 0,3 C 3,9 C 6,4 km/h
02.02.2018 05:00 3,7 C 77 % 1007,5 hPa 0,0 l/m 0,2 km/h N 0,1 C 3,7 C 2,4 km/h
02.02.2018 06:00 3,4 C 78 % 1007,6 hPa 0,0 l/m 0,4 km/h N 0,0 C 3,4 C 3,6 km/h
02.02.2018 07:00 3,7 C 77 % 1007,7 hPa 0,0 l/m 0,9 km/h N -0,1 C 3,7 C 8,0 km/h
02.02.2018 08:00 3,9 C 75 % 1007,9 hPa 0,0 l/m 0,4 km/h N -0,0 C 3,9 C 4,4 km/h
02.02.2018 09:00 4,3 C 74 % 1007,9 hPa 0,0 l/m 1,3 km/h N 0,1 C 4,3 C 6,1 km/h
02.02.2018 10:00 4,9 C 70 % 1007,9 hPa 0,0 l/m 3,7 km/h N -0,1 C 4,9 C 13,3 km/h
02.02.2018 11:00 5,3 C 67 % 1007,7 hPa 0,0 l/m 4,2 km/h N -0,3 C 5,3 C 14,1 km/h
02.02.2018 12:00 5,4 C 66 % 1007,5 hPa 0,0 l/m 4,0 km/h N -0,4 C 5,4 C 10,5 km/h
02.02.2018 13:00 5,2 C 68 % 1007,5 hPa 0,0 l/m 2,3 km/h N -0,1 C 5,2 C 11,7 km/h
02.02.2018 14:00 4,6 C 76 % 1007,5 hPa 0,0 l/m 1,9 km/h N 0,7 C 4,6 C 8,4 km/h
02.02.2018 15:00 4,1 C 80 % 1007,2 hPa 0,0 l/m 2,0 km/h N 1,0 C 4,1 C 6,8 km/h
02.02.2018 16:00 4,0 C 80 % 1006,9 hPa 0,0 l/m 0,8 km/h N 0,8 C 4,0 C 4,8 km/h
02.02.2018 17:00 4,3 C 73 % 1007,0 hPa 0,0 l/m 0,5 km/h N -0,2 C 4,3 C 7,6 km/h
02.02.2018 18:00 4,4 C 71 % 1007,2 hPa 0,0 l/m 4,1 km/h N -0,5 C 4,4 C 15,7 km/h
02.02.2018 19:00 4,0 C 67 % 1007,6 hPa 0,0 l/m 6,2 km/h N -1,5 C 3,8 C 18,5 km/h
02.02.2018 20:00 3,5 C 69 % 1007,8 hPa 0,0 l/m 3,0 km/h N -1,8 C 3,5 C 12,5 km/h
02.02.2018 21:00 3,1 C 70 % 1007,9 hPa 0,0 l/m 3,9 km/h N -1,9 C 3,1 C 15,7 km/h
02.02.2018 22:00 2,6 C 72 % 1008,1 hPa 0,0 l/m 1,8 km/h N -1,9 C 2,6 C 8,1 km/h
02.02.2018 23:00 2,3 C 75 % 1008,1 hPa 0,0 l/m 1,4 km/h N -1,7 C 2,3 C 8,4 km/h
03.02.2018 00:00 3,1 C 70 % 1008,0 hPa 0,0 l/m 2,5 km/h N -1,8 C 3,1 C 8,8 km/h
03.02.2018 01:00 2,7 C 70 % 1007,6 hPa 0,0 l/m 0,8 km/h N -2,2 C 2,7 C 5,6 km/h
03.02.2018 02:00 3,5 C 66 % 1007,2 hPa 0,0 l/m 4,9 km/h N -2,3 C 3,5 C 16,1 km/h
03.02.2018 03:00 3,6 C 66 % 1006,7 hPa 0,0 l/m 2,7 km/h N -2,3 C 3,6 C 9,7 km/h
03.02.2018 04:00 2,5 C 71 % 1006,4 hPa 0,0 l/m 0,8 km/h N -2,3 C 2,5 C 4,0 km/h
03.02.2018 05:00 2,3 C 71 % 1006,1 hPa 0,0 l/m 0,3 km/h N -2,4 C 2,3 C 3,6 km/h
03.02.2018 06:00 3,4 C 65 % 1005,6 hPa 0,0 l/m 3,2 km/h N -2,5 C 3,4 C 13,3 km/h
03.02.2018 07:00 3,4 C 65 % 1004,9 hPa 0,0 l/m 4,4 km/h N -2,6 C 3,4 C 14,5 km/h
03.02.2018 08:00 3,4 C 66 % 1005,4 hPa 0,0 l/m 4,2 km/h N -2,3 C 3,4 C 11,7 km/h
03.02.2018 09:00 3,6 C 67 % 1004,6 hPa 0,0 l/m 6,2 km/h N -1,9 C 3,3 C 15,7 km/h
03.02.2018 10:00 4,2 C 66 % 1004,2 hPa 0,0 l/m 7,4 km/h N -1,5 C 3,3 C 16,9 km/h
03.02.2018 11:00 4,2 C 67 % 1003,7 hPa 0,0 l/m 7,6 km/h N -1,3 C 2,9 C 18,5 km/h
03.02.2018 12:00 4,3 C 67 % 1003,8 hPa 0,0 l/m 6,4 km/h N -1,2 C 3,9 C 16,9 km/h
03.02.2018 13:00 4,2 C 69 % 1002,7 hPa 0,0 l/m 8,3 km/h N -1,0 C 2,5 C 20,5 km/h
03.02.2018 14:00 3,9 C 71 % 1002,5 hPa 0,0 l/m 9,4 km/h N -0,9 C 1,4 C 21,7 km/h
03.02.2018 15:00 3,7 C 72 % 1002,8 hPa 0,0 l/m 8,4 km/h N -0,8 C 1,9 C 20,9 km/h
03.02.2018 16:00 3,5 C 73 % 1003,1 hPa 0,0 l/m 7,8 km/h N -0,8 C 2,3 C 18,9 km/h
03.02.2018 17:00 3,2 C 75 % 1003,3 hPa 0,0 l/m 8,0 km/h N -0,8 C 1,7 C 19,7 km/h
03.02.2018 18:00 2,9 C 77 % 1003,7 hPa 0,0 l/m 9,3 km/h N -0,8 C 0,3 C 22,5 km/h
03.02.2018 19:00 2,9 C 77 % 1004,4 hPa 0,0 l/m 8,1 km/h N -0,7 C 1,3 C 20,1 km/h
03.02.2018 20:00 3,0 C 77 % 1004,7 hPa 0,0 l/m 7,0 km/h N -0,6 C 2,2 C 18,5 km/h
03.02.2018 21:00 2,9 C 78 % 1005,2 hPa 0,0 l/m 8,4 km/h N -0,5 C 1,1 C 21,3 km/h
03.02.2018 22:00 2,9 C 78 % 1005,8 hPa 0,0 l/m 6,7 km/h N -0,5 C 2,3 C 15,7 km/h
03.02.2018 23:00 2,9 C 78 % 1006,1 hPa 0,0 l/m 7,7 km/h N -0,6 C 1,7 C 19,7 km/h
04.02.2018 00:00 2,8 C 78 % 1006,6 hPa 0,0 l/m 6,7 km/h N -0,7 C 2,0 C 19,7 km/h
04.02.2018 01:00 2,8 C 77 % 1007,2 hPa 0,0 l/m 4,0 km/h N -0,8 C 2,8 C 14,1 km/h
04.02.2018 02:00 2,7 C 77 % 1007,7 hPa 0,0 l/m 6,0 km/h N -1,0 C 2,2 C 16,5 km/h
04.02.2018 03:00 2,3 C 77 % 1008,1 hPa 0,0 l/m 5,1 km/h N -1,3 C 2,1 C 14,5 km/h
04.02.2018 04:00 1,7 C 78 % 1008,9 hPa 0,0 l/m 0,6 km/h N -1,6 C 1,7 C 5,6 km/h
04.02.2018 05:00 1,6 C 78 % 1009,7 hPa 0,0 l/m 2,2 km/h N -1,7 C 1,6 C 10,9 km/h
04.02.2018 06:00 2,2 C 77 % 1010,5 hPa 0,0 l/m 7,2 km/h N -1,5 C 1,2 C 18,9 km/h
04.02.2018 07:00 2,3 C 77 % 1011,5 hPa 0,0 l/m 4,9 km/h N -1,4 C 2,3 C 16,1 km/h
04.02.2018 08:00 2,3 C 76 % 1012,4 hPa 0,0 l/m 5,8 km/h N -1,4 C 2,3 C 15,3 km/h
04.02.2018 09:00 2,6 C 75 % 1013,2 hPa 0,0 l/m 6,7 km/h N -1,4 C 1,8 C 16,1 km/h
04.02.2018 10:00 3,4 C 68 % 1014,0 hPa 0,0 l/m 9,2 km/h N -2,1 C 1,0 C 20,5 km/h
04.02.2018 11:00 2,6 C 71 % 1014,8 hPa 0,0 l/m 6,3 km/h N -2,1 C 2,3 C 20,1 km/h
04.02.2018 12:00 2,0 C 79 % 1015,1 hPa 0,3 l/m 6,1 km/h N -1,3 C 1,9 C 18,9 km/h
04.02.2018 13:00 3,8 C 65 % 1015,3 hPa 0,0 l/m 5,5 km/h N -2,2 C 3,6 C 15,3 km/h
04.02.2018 14:00 3,9 C 68 % 1015,8 hPa 0,0 l/m 6,0 km/h N -1,4 C 3,7 C 18,1 km/h
04.02.2018 15:00 3,2 C 74 % 1016,8 hPa 0,0 l/m 4,0 km/h N -1,0 C 3,2 C 13,7 km/h
04.02.2018 16:00 2,7 C 76 % 1017,4 hPa 0,0 l/m 3,1 km/h N -1,1 C 2,7 C 12,9 km/h
04.02.2018 17:00 1,9 C 77 % 1018,2 hPa 0,0 l/m 0,0 km/h N -1,8 C 1,9 C 0,0 km/h
04.02.2018 18:00 -0,1 C 78 % 1019,2 hPa 0,0 l/m 0,0 km/h N -3,5 C -0,1 C 0,0 km/h
04.02.2018 19:00 -0,7 C 82 % 1019,8 hPa 0,0 l/m 0,0 km/h N -3,4 C -0,7 C 0,4 km/h
04.02.2018 20:00 -1,8 C 82 % 1020,5 hPa 0,0 l/m 0,0 km/h N -4,4 C -1,8 C 0,0 km/h
04.02.2018 21:00 -2,5 C 83 % 1021,0 hPa 0,0 l/m 0,0 km/h N -5,0 C -2,5 C 0,0 km/h
04.02.2018 22:00 -2,7 C 84 % 1021,5 hPa 0,0 l/m 0,0 km/h N -5,1 C -2,7 C 0,0 km/h
04.02.2018 23:00 -3,1 C 84 % 1022,1 hPa 0,0 l/m 0,0 km/h N -5,4 C -3,1 C 0,0 km/h
Min-Datum _ 04.02.18 29.01.18 01.02.18 - 30.01.18 - 04.02.18 04.02.18 30.01.18
_ Min-Zeit 23:45 15:15 16:00 - 13:15 - 23:45 23:45 22:30
Minimum _ -3,4 C 47 % 1001,9 hPa - 0,0 km/h - -5,7 C -3,4 C 0,0 km/h
Max-Datum _ 29.01.18 31.01.18 29.01.18 30.01.18 30.01.18 - 29.01.18 29.01.18 29.01.18
_ Max-Zeit 15:00 02:45 00:30 08:00 00:30 - 12:00 15:00 12:45
Maximum _ 17,0 C 84 % 1029,0 hPa 0,8 l/m 23,3 km/h
N
- 6,5 C 15,2 C 54,7 km/h
N
Durchschnitt _ 5,1 C 73 % 1014,3 hPa #2,1 l/m 4,4 km/h N 0,6 C 4,4 C 13,6 km/h